Main page
METAR-TAF:

METAR-TAF

Airports :

Oil platform

K14-fa-1c, Netherlands

latitude: 53-16-10N, longitude: 3-37-40E, elevation: 28 m

Current weather observation

The report was made 29 minutes ago, at 20:55 UTC
Wind 21 kt from the East
Temperature 16°C
Humidity 82%
Pressure 1019 hPa
Visibility: 9000 m
Few clouds at a height of 1500 ft, Cumulonimbus.
drizzle, rain

METAR: EHKV 242055Z AUTO 10021KT 9000 DZRA FEW015CB 16/13 Q1019 W///H///

Time: 23:24 (21:24 UTC)


TAF: missing

Weather observations and forecasts of more than 4000 airports (METAR and TAF reports).

The available stations are represented by yellow and red dots on the map.

Hover mouse over dot to see the name of the station.

Then click to see weather observations and forecasts.

To change the map : click on the green buttons with a black cross to zoom in, on the green button with a dash to zoom out, or on the green arrows for adjacent maps.


METAR-TAF: